createdAt,value
2019-04-27T00:00:00.267Z,1.20
2019-04-27T00:02:36.864Z,1.27
2019-04-27T00:05:15.690Z,2.47
2019-04-27T00:07:44.980Z,1.90
2019-04-27T00:10:14.348Z,0.80
2019-04-27T00:12:42.881Z,1.10
2019-04-27T00:15:13.201Z,1.30
2019-04-27T00:17:54.318Z,1.63
2019-04-27T00:20:37.402Z,2.10
2019-04-27T00:23:06.629Z,1.37
2019-04-27T00:25:34.330Z,1.60
2019-04-27T00:28:03.849Z,1.50
2019-04-27T00:30:31.402Z,0.50
2019-04-27T00:32:59.056Z,0.63
2019-04-27T00:35:44.751Z,0.83
2019-04-27T00:38:16.806Z,1.57
2019-04-27T00:40:46.068Z,1.07
2019-04-27T00:43:14.106Z,1.50
2019-04-27T00:45:43.591Z,1.40
2019-04-27T00:48:11.113Z,1.20
2019-04-27T00:50:38.785Z,1.23
2019-04-27T00:53:06.481Z,0.87
2019-04-27T00:55:35.778Z,1.67
2019-04-27T00:58:05.087Z,1.30
2019-04-27T01:00:46.558Z,1.20
2019-04-27T01:03:18.602Z,1.37
2019-04-27T01:05:46.310Z,1.47
2019-04-27T01:08:13.996Z,1.23
2019-04-27T01:10:43.501Z,0.73
2019-04-27T01:13:11.068Z,1.77
2019-04-27T01:15:38.737Z,1.20
2019-04-27T01:18:12.346Z,2.47
2019-04-27T01:20:35.745Z,1.70
2019-04-27T01:23:03.471Z,1.50
2019-04-27T01:25:35.881Z,2.57
2019-04-27T01:28:13.811Z,0.87
2019-04-27T01:30:43.053Z,1.70
2019-04-27T01:33:10.798Z,2.57
2019-04-27T01:35:39.188Z,2.17
2019-04-27T01:38:07.016Z,2.10
2019-04-27T01:40:34.737Z,1.87
2019-04-27T01:43:02.453Z,1.83
2019-04-27T01:45:30.153Z,1.90
2019-04-27T01:47:59.449Z,2.17
2019-04-27T01:50:28.890Z,1.93
2019-04-27T01:52:56.701Z,2.47
2019-04-27T01:55:24.375Z,2.33
2019-04-27T01:57:52.116Z,1.53
2019-04-27T02:00:22.784Z,2.20
2019-04-27T02:02:52.159Z,2.73
2019-04-27T02:05:30.662Z,2.50
2019-04-27T02:07:59.220Z,2.27
2019-04-27T02:10:27.161Z,2.23
2019-04-27T02:12:54.887Z,1.97
2019-04-27T02:15:22.540Z,1.47
2019-04-27T02:17:51.040Z,2.27
2019-04-27T02:20:19.776Z,2.33
2019-04-27T02:22:48.551Z,1.57
2019-04-27T02:25:18.914Z,2.30
2019-04-27T02:27:49.110Z,2.83
2019-04-27T02:30:21.296Z,2.43
2019-04-27T02:33:09.764Z,2.97
2019-04-27T02:35:36.561Z,1.73
2019-04-27T02:38:04.221Z,2.23
2019-04-27T02:40:49.557Z,1.97
2019-04-27T02:43:19.693Z,1.97
2019-04-27T02:45:47.382Z,1.60
2019-04-27T02:48:15.130Z,1.30
2019-04-27T02:50:43.743Z,2.07
2019-04-27T02:53:11.463Z,1.90
2019-04-27T02:55:39.858Z,1.93
2019-04-27T02:58:10.054Z,1.60
2019-04-27T03:00:39.723Z,1.70
2019-04-27T03:03:10.212Z,0.97
2019-04-27T03:05:39.660Z,1.00
2019-04-27T03:08:06.556Z,1.20
2019-04-27T03:10:34.270Z,0.67
2019-04-27T03:13:15.549Z,0.80
2019-04-27T03:15:44.840Z,1.43
2019-04-27T03:18:14.041Z,0.50
2019-04-27T03:20:52.293Z,0.97
2019-04-27T03:23:20.149Z,0.87
2019-04-27T03:26:01.704Z,0.73
2019-04-27T03:28:29.922Z,1.17
2019-04-27T03:31:01.947Z,0.90
2019-04-27T03:33:27.196Z,0.80
2019-04-27T03:35:54.972Z,1.33
2019-04-27T03:38:22.796Z,1.10
2019-04-27T03:40:52.884Z,1.30
2019-04-27T03:43:21.656Z,1.13
2019-04-27T03:45:52.027Z,0.33
2019-04-27T03:48:20.406Z,0.63
2019-04-27T03:50:50.587Z,0.93
2019-04-27T03:53:29.841Z,0.90
2019-04-27T03:56:05.381Z,1.10
2019-04-27T03:58:43.701Z,1.00
2019-04-27T04:01:11.459Z,1.43
2019-04-27T04:03:39.440Z,0.83
2019-04-27T04:06:07.410Z,0.80
2019-04-27T04:08:35.231Z,0.97
2019-04-27T04:11:19.919Z,0.93
2019-04-27T04:13:54.948Z,1.07
2019-04-27T04:16:32.849Z,0.57
2019-04-27T04:19:09.784Z,0.70
2019-04-27T04:21:39.691Z,0.70
2019-04-27T04:24:06.619Z,1.17
2019-04-27T04:26:34.308Z,1.10
2019-04-27T04:29:02.101Z,0.87
2019-04-27T04:31:33.079Z,1.60
2019-04-27T04:33:59.814Z,1.47
2019-04-27T04:36:29.946Z,1.37
2019-04-27T04:38:57.057Z,1.23
2019-04-27T04:41:35.324Z,0.90
2019-04-27T04:44:12.458Z,1.63
2019-04-27T04:46:44.146Z,1.60
2019-04-27T04:49:11.952Z,1.57
2019-04-27T04:51:40.215Z,0.87
2019-04-27T04:54:09.491Z,0.90
2019-04-27T04:56:39.118Z,1.50
2019-04-27T04:59:06.678Z,1.40
2019-04-27T05:01:34.386Z,1.47
2019-04-27T05:04:02.046Z,0.97
2019-04-27T05:06:29.728Z,0.97
2019-04-27T05:08:57.359Z,1.30
2019-04-27T05:11:25.064Z,1.03
2019-04-27T05:13:52.770Z,1.57
2019-04-27T05:16:20.421Z,2.10
2019-04-27T05:18:49.516Z,1.80
2019-04-27T05:21:24.681Z,1.20
2019-04-27T05:23:52.455Z,1.37
2019-04-27T05:26:20.796Z,1.57
2019-04-27T05:28:49.207Z,1.03
2019-04-27T05:31:16.952Z,1.10
2019-04-27T05:33:44.612Z,0.80
2019-04-27T05:36:12.310Z,1.40
2019-04-27T05:38:45.991Z,1.50
2019-04-27T05:41:09.326Z,1.37
2019-04-27T05:43:44.448Z,0.93
2019-04-27T05:46:39.779Z,1.70
2019-04-27T05:49:09.637Z,1.03
2019-04-27T05:51:40.034Z,1.13
2019-04-27T05:54:06.695Z,1.33
2019-04-27T05:56:34.407Z,1.27
2019-04-27T05:59:02.124Z,1.27
2019-04-27T06:01:29.774Z,1.23
2019-04-27T06:03:58.844Z,1.53
2019-04-27T06:06:26.801Z,1.80
2019-04-27T06:08:54.462Z,1.13
2019-04-27T06:11:22.149Z,1.27
2019-04-27T06:13:49.860Z,0.50
2019-04-27T06:16:19.333Z,1.43
2019-04-27T06:18:46.874Z,2.00
2019-04-27T06:21:14.557Z,1.67
2019-04-27T06:23:42.269Z,1.60
2019-04-27T06:26:11.821Z,0.80
2019-04-27T06:28:39.732Z,2.07
2019-04-27T06:31:08.805Z,0.90
2019-04-27T06:33:36.671Z,1.20
2019-04-27T06:36:05.370Z,1.10
2019-04-27T06:38:33.053Z,1.37
2019-04-27T06:41:01.451Z,2.33
2019-04-27T06:43:29.482Z,2.17
2019-04-27T06:45:58.689Z,2.20
2019-04-27T06:48:26.431Z,1.60
2019-04-27T06:51:02.736Z,2.07
2019-04-27T06:53:23.645Z,1.83
2019-04-27T06:55:51.325Z,1.30
2019-04-27T06:58:19.998Z,1.47
2019-04-27T07:00:49.583Z,1.70
2019-04-27T07:03:18.892Z,1.60
2019-04-27T07:05:48.515Z,2.30
2019-04-27T07:08:16.031Z,3.13
2019-04-27T07:10:43.671Z,0.77
2019-04-27T07:13:11.307Z,0.97
2019-04-27T07:15:39.051Z,1.30
2019-04-27T07:18:06.724Z,1.73
2019-04-27T07:20:34.414Z,1.37
2019-04-27T07:23:02.071Z,1.70
2019-04-27T07:25:30.047Z,1.17
2019-04-27T07:27:59.213Z,0.93
2019-04-27T07:30:28.723Z,0.63
2019-04-27T07:32:56.602Z,0.90
2019-04-27T07:35:24.231Z,2.70
2019-04-27T07:37:51.986Z,2.50
2019-04-27T07:40:19.817Z,0.77
2019-04-27T07:42:49.645Z,1.00
2019-04-27T07:45:19.571Z,1.10
2019-04-27T07:47:49.324Z,1.73
2019-04-27T07:50:17.213Z,1.50
2019-04-27T07:52:44.902Z,0.67
2019-04-27T07:55:12.665Z,0.70
2019-04-27T07:57:40.805Z,0.77
2019-04-27T08:00:09.369Z,0.47
2019-04-27T08:02:38.875Z,0.50
2019-04-27T08:05:06.548Z,0.47
2019-04-27T08:07:34.275Z,0.60
2019-04-27T08:10:02.029Z,0.67
2019-04-27T08:12:29.733Z,0.50
2019-04-27T08:14:57.393Z,0.30
2019-04-27T08:17:25.023Z,0.50
2019-04-27T08:19:52.724Z,0.30
2019-04-27T08:22:20.446Z,0.53
2019-04-27T08:24:49.660Z,0.60
2019-04-27T08:27:22.172Z,0.60
2019-04-27T08:29:58.765Z,0.47
2019-04-27T08:32:43.390Z,0.50
2019-04-27T08:35:11.317Z,0.40
2019-04-27T08:37:39.013Z,0.40
2019-04-27T08:40:06.942Z,0.90
2019-04-27T08:42:34.592Z,0.60
2019-04-27T08:45:02.322Z,0.20
2019-04-27T08:47:29.992Z,0.60
2019-04-27T08:49:59.115Z,0.80
2019-04-27T08:52:26.983Z,0.63
2019-04-27T08:54:54.645Z,0.60
2019-04-27T08:57:22.336Z,1.13
2019-04-27T08:59:51.139Z,0.80
2019-04-27T09:02:19.643Z,0.70
2019-04-27T09:04:49.334Z,0.20
2019-04-27T09:07:34.945Z,0.50
2019-04-27T09:10:08.573Z,1.00
2019-04-27T09:12:53.215Z,0.50
2019-04-27T09:15:23.975Z,0.50
2019-04-27T09:17:53.302Z,0.67
2019-04-27T09:20:28.737Z,0.83
2019-04-27T09:22:56.389Z,0.77
2019-04-27T09:25:24.276Z,0.47
2019-04-27T09:27:52.147Z,0.50
2019-04-27T09:30:19.824Z,0.50
2019-04-27T09:32:47.489Z,0.50
2019-04-27T09:35:16.163Z,0.87
2019-04-27T09:37:45.766Z,0.50
2019-04-27T09:40:13.592Z,0.83
2019-04-27T09:42:41.504Z,0.67
2019-04-27T09:45:09.577Z,0.80
2019-04-27T09:47:39.111Z,0.67
2019-04-27T09:50:06.737Z,0.90
2019-04-27T09:52:35.823Z,0.90
2019-04-27T09:55:04.393Z,1.17
2019-04-27T09:57:32.024Z,0.73
2019-04-27T10:00:00.070Z,1.73
2019-04-27T10:02:27.825Z,0.87
2019-04-27T10:04:56.573Z,1.00
2019-04-27T10:07:24.380Z,0.63
2019-04-27T10:09:52.004Z,1.43
2019-04-27T10:12:19.738Z,0.70
2019-04-27T10:14:47.653Z,1.33
2019-04-27T10:17:15.767Z,1.30
2019-04-27T10:19:43.624Z,0.87
2019-04-27T10:22:11.362Z,1.27
2019-04-27T10:24:39.070Z,0.90
2019-04-27T10:27:07.840Z,1.30
2019-04-27T10:29:35.919Z,1.40
2019-04-27T10:32:03.635Z,1.23
2019-04-27T10:34:31.381Z,1.77
2019-04-27T10:36:59.003Z,0.63
2019-04-27T10:39:27.806Z,1.23
2019-04-27T10:41:56.370Z,0.70
2019-04-27T10:44:24.318Z,0.97
2019-04-27T10:46:52.062Z,0.63
2019-04-27T10:49:19.680Z,0.70
2019-04-27T10:51:47.316Z,0.90
2019-04-27T10:54:15.058Z,1.17
2019-04-27T10:56:42.847Z,1.10
2019-04-27T10:59:10.512Z,1.00
2019-04-27T11:01:38.159Z,1.10
2019-04-27T11:04:19.789Z,1.33
2019-04-27T11:06:49.044Z,0.93
2019-04-27T11:09:16.750Z,1.13
2019-04-27T11:11:46.264Z,0.47
2019-04-27T11:14:13.748Z,0.87
2019-04-27T11:16:41.460Z,0.60
2019-04-27T11:19:09.148Z,1.23
2019-04-27T11:21:36.809Z,0.83
2019-04-27T11:24:05.421Z,0.62
2019-04-27T11:26:33.079Z,1.20
2019-04-27T11:29:00.751Z,0.57
2019-04-27T11:31:28.491Z,0.80
2019-04-27T11:33:56.878Z,0.83
2019-04-27T11:36:26.155Z,0.40
2019-04-27T11:38:56.541Z,0.67
2019-04-27T11:41:26.136Z,0.83
2019-04-27T11:43:54.109Z,0.53
2019-04-27T11:46:21.771Z,1.10
2019-04-27T11:48:49.436Z,0.60
2019-04-27T11:51:17.461Z,1.17
2019-04-27T11:53:46.821Z,1.47
2019-04-27T11:56:15.752Z,1.07
2019-04-27T11:58:44.059Z,0.73
2019-04-27T12:01:11.639Z,0.60
2019-04-27T12:03:39.341Z,0.67
2019-04-27T12:06:07.068Z,0.70
2019-04-27T12:08:36.506Z,0.83
2019-04-27T12:11:05.820Z,0.60
2019-04-27T12:13:33.721Z,0.60
2019-04-27T12:16:01.502Z,1.10
2019-04-27T12:18:29.360Z,1.00
2019-04-27T12:20:57.230Z,0.77
2019-04-27T12:23:33.798Z,0.57
2019-04-27T12:25:56.197Z,0.43
2019-04-27T12:28:25.624Z,0.70
2019-04-27T12:30:56.290Z,0.60
2019-04-27T12:33:25.631Z,0.77
2019-04-27T12:35:53.553Z,0.40
2019-04-27T12:38:21.257Z,1.47
2019-04-27T12:40:48.884Z,1.07
2019-04-27T12:43:16.596Z,0.90
2019-04-27T12:45:45.911Z,0.70
2019-04-27T12:48:14.022Z,0.80
2019-04-27T12:50:41.895Z,0.93
2019-04-27T12:55:53.028Z,1.20
2019-04-27T12:58:34.324Z,1.97
2019-04-27T13:01:03.579Z,1.77
2019-04-27T13:03:31.273Z,1.00
2019-04-27T13:05:58.993Z,1.20
2019-04-27T13:08:26.709Z,2.10
2019-04-27T13:10:55.378Z,1.47
2019-04-27T13:13:23.702Z,1.73
2019-04-27T13:15:51.421Z,2.73
2019-04-27T13:18:19.040Z,2.17
2019-04-27T13:20:46.765Z,3.17
2019-04-27T13:23:14.468Z,2.07
2019-04-27T13:25:42.185Z,2.73
2019-04-27T13:28:09.853Z,1.80
2019-04-27T13:30:37.568Z,2.30
2019-04-27T13:33:05.222Z,2.10
2019-04-27T13:35:34.121Z,1.43
2019-04-27T13:38:02.041Z,1.73
2019-04-27T13:40:31.171Z,1.13
2019-04-27T13:43:07.733Z,1.60
2019-04-27T13:45:49.408Z,2.03
2019-04-27T13:48:18.648Z,2.03
2019-04-27T13:50:59.947Z,2.93
2019-04-27T13:53:27.642Z,1.73
2019-04-27T13:55:56.814Z,1.63
2019-04-27T13:58:24.788Z,1.47
2019-04-27T14:00:52.484Z,1.67
2019-04-27T14:03:21.096Z,2.20
2019-04-27T14:05:49.519Z,2.00
2019-04-27T14:08:17.351Z,2.23
2019-04-27T14:10:44.987Z,2.13
2019-04-27T14:13:12.868Z,1.50
2019-04-27T14:15:40.557Z,2.80
2019-04-27T14:18:08.511Z,1.90
2019-04-27T14:20:36.341Z,0.80
2019-04-27T14:23:18.795Z,2.20
2019-04-27T14:25:46.629Z,2.17
2019-04-27T14:28:14.385Z,1.27
2019-04-27T14:30:42.074Z,1.40
2019-04-27T14:33:09.790Z,2.47
2019-04-27T14:35:37.411Z,1.47
2019-04-27T14:38:05.672Z,2.45
2019-04-27T14:40:33.410Z,2.67
2019-04-27T14:43:01.068Z,1.23
2019-04-27T14:45:28.733Z,0.70
2019-04-27T14:47:58.119Z,2.00
2019-04-27T14:50:25.921Z,1.33
2019-04-27T14:52:53.578Z,2.23
2019-04-27T14:55:21.316Z,2.47
2019-04-27T14:57:49.567Z,1.60
2019-04-27T15:00:19.256Z,1.50
2019-04-27T15:02:47.019Z,2.43
2019-04-27T15:05:14.685Z,1.97
2019-04-27T15:07:42.405Z,2.07
2019-04-27T15:10:10.085Z,1.97
2019-04-27T15:12:37.801Z,2.10
2019-04-27T15:15:08.212Z,2.33
2019-04-27T15:17:36.187Z,1.60
2019-04-27T15:20:12.453Z,2.00
2019-04-27T15:22:40.462Z,1.60
2019-04-27T15:25:13.589Z,1.73
2019-04-27T15:27:42.157Z,1.70
2019-04-27T15:30:11.539Z,2.37
2019-04-27T15:32:53.169Z,2.37
2019-04-27T15:35:28.544Z,2.17
2019-04-27T15:37:57.821Z,1.03
2019-04-27T15:40:44.080Z,2.63
2019-04-27T15:43:13.362Z,1.80
2019-04-27T15:45:41.029Z,1.43
2019-04-27T15:48:08.754Z,1.70
2019-04-27T15:50:36.446Z,1.27
2019-04-27T15:53:09.859Z,1.13
2019-04-27T15:55:36.924Z,2.07
2019-04-27T15:58:03.028Z,2.07
2019-04-27T16:00:30.776Z,2.00
2019-04-27T16:02:58.437Z,1.83
2019-04-27T16:05:28.718Z,1.83
2019-04-27T16:07:59.177Z,2.00
2019-04-27T16:10:24.785Z,2.70
2019-04-27T16:13:05.772Z,2.03
2019-04-27T16:15:21.862Z,2.33
2019-04-27T16:17:53.457Z,2.83
2019-04-27T16:20:22.085Z,2.30
2019-04-27T16:22:48.777Z,2.97
2019-04-27T16:25:18.519Z,2.30
2019-04-27T16:27:46.051Z,1.80
2019-04-27T16:30:17.897Z,2.30
2019-04-27T16:32:44.496Z,1.80
2019-04-27T16:35:13.985Z,2.00
2019-04-27T16:37:56.349Z,1.83
2019-04-27T16:40:25.697Z,2.10
2019-04-27T16:42:54.511Z,2.97
2019-04-27T16:45:22.910Z,2.10
2019-04-27T16:47:52.114Z,1.57
2019-04-27T16:50:25.358Z,1.80
2019-04-27T16:52:56.975Z,2.50
2019-04-27T16:55:20.127Z,1.80
2019-04-27T16:57:47.815Z,1.40
2019-04-27T17:00:18.266Z,1.60
2019-04-27T17:02:46.321Z,1.40
2019-04-27T17:05:14.081Z,1.63
2019-04-27T17:07:41.944Z,1.10
2019-04-27T17:10:09.580Z,1.40
2019-04-27T17:12:41.009Z,1.13
2019-04-27T17:15:24.815Z,1.60
2019-04-27T17:17:58.924Z,0.97
2019-04-27T17:20:28.163Z,1.27
2019-04-27T17:22:58.050Z,1.27
2019-04-27T17:25:25.949Z,2.97
2019-04-27T17:27:57.758Z,3.13
2019-04-27T17:30:26.295Z,2.50
2019-04-27T17:33:01.502Z,2.93
2019-04-27T17:35:30.608Z,1.93
2019-04-27T17:37:59.626Z,4.80
2019-04-27T17:40:29.954Z,4.83
2019-04-27T17:42:59.767Z,2.43
2019-04-27T17:45:33.770Z,2.93
2019-04-27T17:48:00.383Z,2.00
2019-04-27T17:50:26.114Z,3.23
2019-04-27T17:52:55.328Z,3.80
2019-04-27T17:55:24.325Z,2.57
2019-04-27T17:57:52.669Z,1.90
2019-04-27T18:00:20.537Z,1.53
2019-04-27T18:02:48.189Z,3.07
2019-04-27T18:05:15.919Z,2.17
2019-04-27T18:07:44.358Z,2.20
2019-04-27T18:10:13.380Z,2.40
2019-04-27T18:12:44.460Z,2.07
2019-04-27T18:15:14.543Z,1.53
2019-04-27T18:17:48.194Z,1.13
2019-04-27T18:20:16.031Z,1.00
2019-04-27T18:22:45.326Z,1.23
2019-04-27T18:25:13.141Z,1.33
2019-04-27T18:27:58.273Z,1.80
2019-04-27T18:30:28.171Z,1.03
2019-04-27T18:32:59.378Z,2.00
2019-04-27T18:35:26.507Z,1.20
2019-04-27T18:38:00.156Z,1.43
2019-04-27T18:40:32.223Z,1.03
2019-04-27T18:42:56.524Z,1.67
2019-04-27T18:45:24.329Z,1.10
2019-04-27T18:47:53.576Z,1.27
2019-04-27T18:50:28.773Z,0.47
2019-04-27T18:52:58.172Z,1.23
2019-04-27T18:55:25.807Z,1.53
2019-04-27T18:57:54.510Z,1.10
2019-04-27T19:00:22.373Z,1.20
2019-04-27T19:02:50.467Z,0.93
2019-04-27T19:05:18.852Z,1.30
2019-04-27T19:07:48.285Z,1.10
2019-04-27T19:10:16.088Z,0.80
2019-04-27T19:12:43.770Z,0.87
2019-04-27T19:15:11.419Z,1.00
2019-04-27T19:17:39.173Z,0.30
2019-04-27T19:20:08.293Z,0.73
2019-04-27T19:22:38.465Z,1.37
2019-04-27T19:25:09.350Z,0.40
2019-04-27T19:27:54.841Z,0.97
2019-04-27T19:30:28.070Z,1.93
2019-04-27T19:32:55.741Z,0.50
2019-04-27T19:35:23.437Z,1.10
2019-04-27T19:37:51.105Z,1.20
2019-04-27T19:40:18.848Z,0.47
2019-04-27T19:42:48.502Z,1.00
2019-04-27T19:45:15.941Z,0.90
2019-04-27T19:47:43.593Z,0.90
2019-04-27T19:50:11.984Z,0.60
2019-04-27T19:52:39.675Z,1.13
2019-04-27T19:55:08.522Z,1.03
2019-04-27T19:57:39.363Z,1.20
2019-04-27T20:00:09.302Z,0.73
2019-04-27T20:02:38.013Z,1.17
2019-04-27T20:05:06.542Z,2.43
2019-04-27T20:07:34.541Z,2.70
2019-04-27T20:10:02.352Z,1.40
2019-04-27T20:12:31.360Z,1.93
2019-04-27T20:14:59.195Z,3.57
2019-04-27T20:17:28.341Z,2.67
2019-04-27T20:19:56.432Z,1.27
2019-04-27T20:22:24.384Z,1.47
2019-04-27T20:24:52.369Z,1.60
2019-04-27T20:27:21.178Z,1.10
2019-04-27T20:29:49.140Z,1.60
2019-04-27T20:32:16.814Z,1.80
2019-04-27T20:34:44.523Z,0.77
2019-04-27T20:37:12.302Z,2.13
2019-04-27T20:39:42.584Z,3.00
2019-04-27T20:42:12.357Z,3.20
2019-04-27T20:44:38.599Z,2.27
2019-04-27T20:47:06.393Z,1.73
2019-04-27T20:49:34.110Z,1.83
2019-04-27T20:52:12.145Z,1.23
2019-04-27T20:54:41.455Z,1.93
2019-04-27T20:57:09.165Z,1.83
2019-04-27T20:59:36.901Z,1.27
2019-04-27T21:02:24.135Z,1.22
2019-04-27T21:04:53.567Z,1.47
2019-04-27T21:07:22.953Z,1.37
2019-04-27T21:09:50.570Z,3.23
2019-04-27T21:12:18.269Z,2.67
2019-04-27T21:14:45.936Z,1.23
2019-04-27T21:17:13.674Z,2.00
2019-04-27T21:19:41.432Z,5.57
2019-04-27T21:22:11.064Z,8.63
2019-04-27T21:24:38.439Z,7.27
2019-04-27T21:27:06.190Z,6.47
2019-04-27T21:29:33.886Z,5.40
2019-04-27T21:32:01.667Z,3.30
2019-04-27T21:34:31.073Z,2.07
2019-04-27T21:37:00.661Z,1.97
2019-04-27T21:39:28.336Z,1.57
2019-04-27T21:41:56.013Z,2.83
2019-04-27T21:44:23.760Z,1.43
2019-04-27T21:46:51.999Z,1.80
2019-04-27T21:49:21.652Z,2.47
2019-04-27T21:52:03.065Z,1.53
2019-04-27T21:54:32.763Z,2.07
2019-04-27T21:57:00.595Z,2.23
2019-04-27T21:59:28.376Z,2.13
2019-04-27T22:01:57.434Z,3.27
2019-04-27T22:04:25.236Z,2.17
2019-04-27T22:06:53.007Z,1.60
2019-04-27T22:09:20.785Z,3.13
2019-04-27T22:11:48.446Z,3.07
2019-04-27T22:14:16.131Z,1.97
2019-04-27T22:16:43.884Z,2.13
2019-04-27T22:19:12.111Z,2.40
2019-04-27T22:21:41.820Z,3.13
2019-04-27T22:24:22.927Z,1.40
2019-04-27T22:26:51.777Z,2.63
2019-04-27T22:29:19.759Z,2.00
2019-04-27T22:31:47.773Z,3.50
2019-04-27T22:34:15.555Z,1.57
2019-04-27T22:36:43.417Z,1.90
2019-04-27T22:39:15.704Z,1.97
2019-04-27T22:41:57.375Z,4.63
2019-04-27T22:44:26.668Z,4.43
2019-04-27T22:46:55.335Z,4.83
2019-04-27T22:49:23.119Z,3.17
2019-04-27T22:51:51.252Z,2.47
2019-04-27T22:54:19.044Z,2.77
2019-04-27T22:56:48.473Z,2.97
2019-04-27T22:59:26.781Z,2.07
2019-04-27T23:01:56.173Z,2.60
2019-04-27T23:04:28.252Z,1.90
2019-04-27T23:06:56.011Z,1.73
2019-04-27T23:09:23.764Z,3.13
2019-04-27T23:11:51.679Z,1.37
2019-04-27T23:14:21.072Z,1.40
2019-04-27T23:16:53.312Z,3.30
2019-04-27T23:19:21.193Z,1.77
2019-04-27T23:21:48.824Z,2.00
2019-04-27T23:24:16.504Z,1.97
2019-04-27T23:26:44.287Z,1.53
2019-04-27T23:29:15.694Z,3.80
2019-04-27T23:31:48.830Z,2.27
2019-04-27T23:34:16.596Z,2.63
2019-04-27T23:36:44.469Z,2.20
2019-04-27T23:39:12.332Z,1.27
2019-04-27T23:41:40.096Z,1.90
2019-04-27T23:44:07.850Z,1.33
2019-04-27T23:46:35.629Z,1.70
2019-04-27T23:49:03.502Z,2.13
2019-04-27T23:51:38.208Z,1.57
2019-04-27T23:54:05.909Z,1.17
2019-04-27T23:56:33.660Z,1.67
2019-04-27T23:59:01.414Z,2.10
